createdAt,value
2017-08-30T00:00:52.109Z,77.40
2017-08-30T00:03:19.641Z,77.60
2017-08-30T00:05:47.215Z,77.40
2017-08-30T00:08:14.752Z,77.40
2017-08-30T00:10:42.303Z,77.70
2017-08-30T00:13:09.836Z,77.70
2017-08-30T00:15:37.381Z,77.70
2017-08-30T00:18:04.947Z,77.60
2017-08-30T00:20:32.488Z,77.60
2017-08-30T00:23:00.038Z,77.70
2017-08-30T00:25:39.319Z,77.70
2017-08-30T00:28:06.934Z,77.70
2017-08-30T00:30:34.502Z,77.90
2017-08-30T00:33:02.082Z,77.90
2017-08-30T00:35:29.617Z,77.90
2017-08-30T00:37:58.117Z,78.10
2017-08-30T00:40:25.678Z,78.10
2017-08-30T00:42:53.226Z,78.10
2017-08-30T00:45:20.777Z,78.00
2017-08-30T00:47:48.345Z,78.00
2017-08-30T00:50:15.903Z,77.90
2017-08-30T00:52:43.423Z,77.80
2017-08-30T00:55:10.976Z,77.70
2017-08-30T00:57:38.492Z,77.60
2017-08-30T01:00:06.022Z,77.50
2017-08-30T01:02:33.557Z,77.40
2017-08-30T01:05:01.090Z,77.20
2017-08-30T01:07:28.652Z,77.10
2017-08-30T01:09:56.187Z,77.10
2017-08-30T01:12:24.625Z,76.60
2017-08-30T01:14:52.159Z,76.60
2017-08-30T01:17:19.731Z,76.40
2017-08-30T01:19:47.265Z,76.40
2017-08-30T01:22:14.791Z,76.20
2017-08-30T01:24:42.336Z,76.20
2017-08-30T01:27:09.882Z,76.40
2017-08-30T01:29:37.444Z,76.10
2017-08-30T01:32:04.969Z,76.10
2017-08-30T01:34:32.526Z,76.10
2017-08-30T01:37:00.061Z,76.10
2017-08-30T01:39:27.597Z,76.20
2017-08-30T01:41:55.156Z,76.10
2017-08-30T01:44:22.684Z,76.20
2017-08-30T01:46:50.244Z,76.20
2017-08-30T01:49:17.773Z,76.40
2017-08-30T01:51:45.337Z,76.40
2017-08-30T01:54:12.859Z,76.40
2017-08-30T01:56:40.385Z,76.40
2017-08-30T01:59:07.920Z,76.60
2017-08-30T02:01:35.443Z,76.40
2017-08-30T02:04:02.988Z,76.40
2017-08-30T02:06:30.513Z,76.60
2017-08-30T02:08:59.000Z,76.60
2017-08-30T02:11:26.970Z,76.60
2017-08-30T02:13:54.537Z,76.70
2017-08-30T02:16:22.066Z,76.70
2017-08-30T02:18:49.617Z,76.70
2017-08-30T02:21:17.140Z,76.90
2017-08-30T02:23:44.849Z,76.90
2017-08-30T02:26:12.397Z,76.90
2017-08-30T02:28:39.923Z,76.60
2017-08-30T02:31:07.477Z,76.60
2017-08-30T02:33:35.016Z,76.40
2017-08-30T02:36:02.573Z,76.40
2017-08-30T02:38:30.105Z,76.40
2017-08-30T02:40:57.672Z,76.40
2017-08-30T02:43:25.240Z,76.30
2017-08-30T02:45:52.839Z,76.20
2017-08-30T02:48:20.419Z,76.20
2017-08-30T02:50:47.946Z,76.10
2017-08-30T02:53:15.521Z,76.10
2017-08-30T02:55:43.053Z,76.00
2017-08-30T02:58:10.631Z,76.00
2017-08-30T03:00:38.178Z,76.00
2017-08-30T03:03:05.812Z,76.10
2017-08-30T03:05:33.341Z,76.10
2017-08-30T03:08:00.903Z,76.20
2017-08-30T03:10:29.012Z,76.20
2017-08-30T03:12:57.010Z,76.20
2017-08-30T03:15:24.544Z,76.20
2017-08-30T03:17:52.098Z,76.20
2017-08-30T03:20:19.648Z,76.20
2017-08-30T03:22:47.190Z,76.10
2017-08-30T03:25:14.747Z,76.30
2017-08-30T03:27:42.290Z,76.30
2017-08-30T03:30:09.884Z,76.30
2017-08-30T03:32:37.435Z,76.50
2017-08-30T03:35:04.987Z,76.60
2017-08-30T03:37:32.542Z,76.70
2017-08-30T03:40:00.114Z,76.90
2017-08-30T03:42:27.663Z,76.70
2017-08-30T03:44:55.194Z,76.70
2017-08-30T03:47:22.763Z,76.90
2017-08-30T03:49:50.317Z,76.90
2017-08-30T03:52:17.878Z,76.90
2017-08-30T03:54:45.427Z,77.10
2017-08-30T03:57:13.015Z,77.10
2017-08-30T03:59:42.589Z,77.30
2017-08-30T04:02:10.145Z,77.20
2017-08-30T04:04:38.708Z,77.30
2017-08-30T04:07:06.299Z,77.30
2017-08-30T04:09:33.881Z,77.60
2017-08-30T04:12:01.442Z,77.60
2017-08-30T04:14:29.014Z,77.60
2017-08-30T04:16:57.068Z,77.70
2017-08-30T04:19:24.632Z,77.70
2017-08-30T04:21:52.179Z,77.70
2017-08-30T04:24:19.770Z,77.80
2017-08-30T04:26:47.310Z,77.90
2017-08-30T04:29:14.878Z,78.00
2017-08-30T04:31:42.490Z,78.00
2017-08-30T04:34:10.072Z,78.00
2017-08-30T04:36:37.650Z,78.00
2017-08-30T04:39:05.214Z,77.90
2017-08-30T04:41:32.784Z,77.90
2017-08-30T04:44:00.334Z,77.90
2017-08-30T04:46:29.206Z,77.80
2017-08-30T04:48:57.132Z,77.60
2017-08-30T04:51:24.688Z,77.50
2017-08-30T04:53:52.231Z,77.30
2017-08-30T04:56:19.793Z,77.30
2017-08-30T04:58:47.334Z,77.10
2017-08-30T05:01:14.902Z,76.70
2017-08-30T05:03:42.450Z,76.70
2017-08-30T05:06:10.027Z,76.40
2017-08-30T05:08:37.596Z,76.20
2017-08-30T05:11:05.385Z,76.00
2017-08-30T05:13:32.944Z,75.80
2017-08-30T05:16:00.502Z,75.90
2017-08-30T05:18:28.568Z,76.00
2017-08-30T05:20:56.109Z,75.80
2017-08-30T05:23:23.657Z,75.90
2017-08-30T05:25:51.192Z,76.00
2017-08-30T05:28:18.740Z,76.20
2017-08-30T05:30:46.277Z,76.10
2017-08-30T05:33:13.838Z,75.70
2017-08-30T05:35:41.386Z,75.80
2017-08-30T05:38:08.921Z,76.10
2017-08-30T05:40:36.468Z,75.70
2017-08-30T05:43:03.991Z,76.00
2017-08-30T05:45:31.549Z,75.70
2017-08-30T05:47:59.085Z,75.50
2017-08-30T05:50:27.076Z,75.90
2017-08-30T05:52:54.602Z,75.40
2017-08-30T05:55:22.130Z,76.10
2017-08-30T05:57:49.688Z,75.80
2017-08-30T06:00:17.220Z,75.60
2017-08-30T06:02:44.771Z,76.20
2017-08-30T06:05:12.315Z,75.10
2017-08-30T06:07:39.889Z,75.20
2017-08-30T06:10:07.425Z,75.40
2017-08-30T06:12:34.973Z,75.50
2017-08-30T06:15:02.597Z,75.60
2017-08-30T06:17:30.182Z,75.50
2017-08-30T06:19:57.724Z,76.00
2017-08-30T06:22:25.257Z,75.30
2017-08-30T06:24:58.564Z,75.70
2017-08-30T06:27:26.142Z,75.40
2017-08-30T06:29:53.745Z,75.40
2017-08-30T06:32:22.316Z,74.90
2017-08-30T06:34:49.867Z,75.40
2017-08-30T06:37:17.393Z,75.40
2017-08-30T06:39:44.963Z,75.30
2017-08-30T06:42:12.509Z,75.70
2017-08-30T06:44:41.159Z,75.20
2017-08-30T06:47:08.701Z,74.60
2017-08-30T06:49:36.373Z,74.50
2017-08-30T06:52:03.905Z,75.30
2017-08-30T06:54:31.443Z,75.20
2017-08-30T06:56:59.000Z,73.90
2017-08-30T06:59:27.218Z,74.40
2017-08-30T07:01:54.760Z,74.30
2017-08-30T07:04:22.280Z,73.90
2017-08-30T07:06:49.855Z,73.80
2017-08-30T07:09:17.411Z,72.90
2017-08-30T07:11:44.935Z,73.30
2017-08-30T07:14:12.480Z,72.60
2017-08-30T07:16:40.024Z,72.00
2017-08-30T07:19:07.579Z,72.80
2017-08-30T07:21:35.129Z,73.10
2017-08-30T07:24:02.716Z,72.60
2017-08-30T07:26:30.255Z,72.50
2017-08-30T07:28:57.798Z,72.70
2017-08-30T07:31:25.362Z,72.80
2017-08-30T07:33:52.904Z,73.20
2017-08-30T07:36:20.568Z,72.80
2017-08-30T07:38:48.105Z,73.10
2017-08-30T07:41:15.657Z,73.50
2017-08-30T07:43:43.199Z,73.50
2017-08-30T07:46:10.762Z,74.20
2017-08-30T07:48:38.302Z,74.50
2017-08-30T07:51:05.828Z,74.40
2017-08-30T07:53:33.398Z,74.20
2017-08-30T07:56:00.946Z,73.70
2017-08-30T07:58:30.053Z,73.40
2017-08-30T08:00:57.621Z,73.60
2017-08-30T08:03:25.164Z,74.70
2017-08-30T08:05:52.701Z,73.90
2017-08-30T08:08:20.272Z,74.70
2017-08-30T08:10:47.800Z,74.20
2017-08-30T08:13:15.330Z,73.80
2017-08-30T08:15:42.896Z,74.70
2017-08-30T08:18:10.425Z,75.50
2017-08-30T08:20:37.985Z,74.10
2017-08-30T08:23:05.569Z,73.30
2017-08-30T08:25:33.159Z,73.10
2017-08-30T08:28:00.685Z,72.80
2017-08-30T08:30:29.193Z,73.40
2017-08-30T08:32:57.172Z,71.90
2017-08-30T08:35:24.725Z,72.60
2017-08-30T08:37:52.282Z,73.30
2017-08-30T08:40:19.881Z,74.10
2017-08-30T08:42:47.442Z,73.40
2017-08-30T08:45:14.989Z,73.60
2017-08-30T08:47:42.553Z,72.80
2017-08-30T08:50:10.101Z,74.10
2017-08-30T08:52:37.626Z,74.00
2017-08-30T08:55:05.175Z,73.90
2017-08-30T08:57:32.722Z,73.50
2017-08-30T09:00:00.282Z,73.10
2017-08-30T09:02:27.821Z,73.80
2017-08-30T09:04:55.377Z,73.90
2017-08-30T09:07:22.918Z,73.80
2017-08-30T09:09:50.450Z,72.80
2017-08-30T09:12:18.017Z,73.20
2017-08-30T09:14:45.566Z,72.30
2017-08-30T09:17:13.119Z,73.00
2017-08-30T09:19:40.649Z,75.90
2017-08-30T09:22:11.921Z,76.80
2017-08-30T09:24:39.462Z,76.20
2017-08-30T09:27:07.039Z,77.80
2017-08-30T09:29:34.598Z,80.20
2017-08-30T09:32:02.142Z,79.90
2017-08-30T09:34:29.710Z,78.60
2017-08-30T09:36:57.261Z,78.50
2017-08-30T09:39:24.831Z,78.10
2017-08-30T09:41:52.399Z,77.40
2017-08-30T09:44:19.957Z,76.90
2017-08-30T09:46:47.488Z,77.20
2017-08-30T09:49:15.052Z,77.40
2017-08-30T09:51:42.604Z,76.40
2017-08-30T09:54:10.147Z,75.20
2017-08-30T09:56:37.696Z,76.90
2017-08-30T09:59:05.224Z,75.40
2017-08-30T10:01:32.806Z,75.70
2017-08-30T10:04:00.340Z,75.30
2017-08-30T10:06:27.934Z,74.80
2017-08-30T10:08:55.513Z,74.50
2017-08-30T10:11:23.037Z,74.50
2017-08-30T10:13:50.589Z,74.10
2017-08-30T10:16:18.127Z,73.60
2017-08-30T10:18:45.672Z,72.60
2017-08-30T10:21:13.211Z,73.80
2017-08-30T10:23:40.768Z,72.40
2017-08-30T10:26:08.295Z,71.50
2017-08-30T10:28:35.862Z,71.50
2017-08-30T10:31:03.408Z,72.90
2017-08-30T10:33:30.937Z,73.40
2017-08-30T10:35:59.917Z,72.10
2017-08-30T10:38:28.643Z,72.40
2017-08-30T10:40:56.181Z,71.80
2017-08-30T10:43:23.702Z,72.10
2017-08-30T10:45:51.249Z,73.00
2017-08-30T10:48:18.785Z,72.80
2017-08-30T10:50:46.360Z,73.40
2017-08-30T10:53:13.885Z,74.10
2017-08-30T10:55:43.445Z,73.50
2017-08-30T10:58:12.051Z,74.00
2017-08-30T11:00:39.589Z,72.70
2017-08-30T11:03:07.985Z,71.70
2017-08-30T11:05:35.521Z,71.80
2017-08-30T11:08:03.089Z,70.10
2017-08-30T11:10:30.621Z,70.60
2017-08-30T11:12:59.344Z,70.90
2017-08-30T11:15:27.591Z,71.10
2017-08-30T11:17:55.151Z,70.20
2017-08-30T11:20:22.834Z,71.40
2017-08-30T11:22:50.382Z,70.60
2017-08-30T11:25:17.916Z,68.90
2017-08-30T11:27:45.513Z,69.40
2017-08-30T11:30:13.045Z,67.90
2017-08-30T11:32:40.573Z,66.50
2017-08-30T11:35:08.144Z,67.10
2017-08-30T11:37:35.665Z,66.00
2017-08-30T11:40:03.179Z,67.30
2017-08-30T11:42:30.732Z,66.70
2017-08-30T11:44:58.764Z,67.50
2017-08-30T11:47:26.318Z,64.70
2017-08-30T11:49:53.881Z,66.30
2017-08-30T11:52:21.457Z,64.90
2017-08-30T11:54:49.159Z,65.40
2017-08-30T11:57:16.689Z,64.40
2017-08-30T11:59:44.249Z,64.60
2017-08-30T12:02:11.776Z,66.80
2017-08-30T12:04:39.324Z,67.20
2017-08-30T12:07:06.845Z,67.60
2017-08-30T12:09:34.454Z,66.50
2017-08-30T12:12:01.980Z,66.70
2017-08-30T12:14:29.689Z,65.90
2017-08-30T12:16:58.420Z,66.40
2017-08-30T12:19:25.952Z,66.40
2017-08-30T12:21:53.501Z,66.30
2017-08-30T12:24:21.025Z,65.70
2017-08-30T12:26:48.574Z,65.90
2017-08-30T12:29:16.158Z,65.80
2017-08-30T12:31:43.685Z,66.90
2017-08-30T12:34:11.237Z,66.00
2017-08-30T12:36:44.568Z,66.50
2017-08-30T12:39:17.893Z,66.80
2017-08-30T12:41:45.414Z,66.10
2017-08-30T12:44:12.966Z,67.10
2017-08-30T12:46:40.523Z,67.10
2017-08-30T12:49:08.069Z,66.80
2017-08-30T12:51:35.673Z,67.90
2017-08-30T12:54:03.218Z,68.00
2017-08-30T12:56:30.801Z,67.70
2017-08-30T12:58:59.716Z,68.80
2017-08-30T13:01:28.493Z,69.30
2017-08-30T13:03:56.023Z,67.80
2017-08-30T13:06:23.582Z,68.30
2017-08-30T13:08:51.147Z,67.20
2017-08-30T13:11:18.706Z,67.80
2017-08-30T13:13:46.252Z,67.80
2017-08-30T13:16:13.778Z,68.30
2017-08-30T13:18:41.341Z,67.70
2017-08-30T13:21:08.857Z,68.80
2017-08-30T13:23:36.413Z,68.70
2017-08-30T13:26:03.947Z,69.60
2017-08-30T13:28:31.507Z,70.30
2017-08-30T13:30:59.671Z,70.50
2017-08-30T13:33:28.268Z,70.60
2017-08-30T13:35:55.809Z,70.70
2017-08-30T13:38:23.374Z,70.60
2017-08-30T13:40:50.904Z,70.40
2017-08-30T13:43:18.437Z,71.80
2017-08-30T13:45:46.004Z,71.80
2017-08-30T13:48:13.564Z,72.40
2017-08-30T13:50:41.135Z,72.00
2017-08-30T13:53:08.652Z,71.60
2017-08-30T13:55:36.210Z,72.60
2017-08-30T13:58:03.830Z,72.70
2017-08-30T14:00:31.445Z,72.10
2017-08-30T14:02:59.039Z,72.10
2017-08-30T14:05:26.561Z,72.70
2017-08-30T14:07:54.160Z,73.00
2017-08-30T14:10:21.705Z,72.60
2017-08-30T14:12:49.268Z,71.60
2017-08-30T14:15:16.852Z,73.30
2017-08-30T14:17:44.398Z,73.10
2017-08-30T14:20:11.966Z,71.20
2017-08-30T14:22:39.507Z,71.10
2017-08-30T14:25:07.125Z,71.50
2017-08-30T14:27:34.783Z,73.20
2017-08-30T14:30:02.342Z,72.00
2017-08-30T14:32:30.182Z,72.70
2017-08-30T14:34:58.335Z,71.80
2017-08-30T14:37:25.908Z,71.80
2017-08-30T14:39:53.461Z,71.20
2017-08-30T14:42:21.020Z,71.30
2017-08-30T14:44:48.577Z,71.70
2017-08-30T14:47:16.116Z,72.70
2017-08-30T14:49:43.664Z,71.50
2017-08-30T14:52:11.201Z,71.30
2017-08-30T14:54:38.756Z,70.60
2017-08-30T14:57:06.322Z,69.90
2017-08-30T14:59:33.876Z,70.00
2017-08-30T15:02:01.407Z,70.20
2017-08-30T15:04:29.513Z,70.40
2017-08-30T15:06:57.497Z,70.50
2017-08-30T15:09:25.040Z,70.90
2017-08-30T15:11:52.583Z,70.90
2017-08-30T15:14:20.149Z,70.90
2017-08-30T15:16:47.684Z,72.10
2017-08-30T15:19:15.251Z,72.10
2017-08-30T15:21:42.787Z,72.20
2017-08-30T15:24:10.396Z,71.60
2017-08-30T15:26:37.921Z,72.20
2017-08-30T15:29:05.501Z,72.30
2017-08-30T15:31:33.073Z,72.70
2017-08-30T15:34:00.752Z,72.90
2017-08-30T15:36:28.647Z,72.60
2017-08-30T15:38:56.369Z,72.40
2017-08-30T15:41:23.933Z,72.50
2017-08-30T15:43:51.514Z,72.50
2017-08-30T15:46:19.425Z,72.30
2017-08-30T15:48:47.111Z,72.20
2017-08-30T15:51:14.732Z,72.70
2017-08-30T15:53:42.412Z,73.30
2017-08-30T15:56:10.043Z,73.50
2017-08-30T15:58:37.593Z,73.80
2017-08-30T16:01:05.260Z,74.10
2017-08-30T16:03:32.882Z,73.90
2017-08-30T16:06:00.550Z,73.90
2017-08-30T16:08:29.007Z,74.70
2017-08-30T16:10:56.583Z,74.90
2017-08-30T16:13:24.115Z,74.60
2017-08-30T16:15:51.665Z,75.30
2017-08-30T16:18:19.235Z,75.00
2017-08-30T16:20:46.839Z,75.60
2017-08-30T16:23:14.366Z,76.20
2017-08-30T16:25:41.941Z,76.30
2017-08-30T16:28:09.482Z,75.60
2017-08-30T16:30:37.062Z,76.30
2017-08-30T16:33:04.618Z,76.00
2017-08-30T16:35:32.194Z,76.40
2017-08-30T16:37:59.786Z,77.10
2017-08-30T16:40:27.971Z,77.90
2017-08-30T16:42:55.526Z,77.90
2017-08-30T16:45:23.176Z,77.60
2017-08-30T16:47:50.716Z,79.20
2017-08-30T16:50:18.332Z,80.60
2017-08-30T16:52:45.932Z,80.90
2017-08-30T16:55:13.727Z,81.50
2017-08-30T16:57:41.241Z,80.50
2017-08-30T17:00:09.348Z,80.30
2017-08-30T17:02:37.068Z,79.00
2017-08-30T17:05:04.614Z,78.70
2017-08-30T17:07:32.165Z,79.00
2017-08-30T17:10:00.470Z,79.00
2017-08-30T17:12:28.050Z,79.20
2017-08-30T17:14:55.624Z,81.30
2017-08-30T17:17:23.151Z,86.00
2017-08-30T17:19:50.702Z,88.60
2017-08-30T17:22:18.231Z,88.90
2017-08-30T17:24:45.809Z,90.00
2017-08-30T17:27:13.569Z,91.00
2017-08-30T17:29:41.136Z,92.80
2017-08-30T17:32:08.682Z,94.00
2017-08-30T17:34:36.286Z,94.20
2017-08-30T17:37:03.868Z,95.30
2017-08-30T17:39:31.480Z,95.70
2017-08-30T17:42:00.149Z,96.20
2017-08-30T17:44:29.105Z,96.30
2017-08-30T17:46:56.664Z,96.70
2017-08-30T17:49:24.201Z,96.90
2017-08-30T17:51:51.938Z,97.00
2017-08-30T17:54:19.477Z,97.20
2017-08-30T17:56:47.100Z,97.20
2017-08-30T17:59:14.644Z,97.30
2017-08-30T18:01:42.214Z,97.30
2017-08-30T18:04:09.756Z,97.50
2017-08-30T18:06:37.370Z,97.50
2017-08-30T18:09:04.985Z,97.60
2017-08-30T18:11:32.552Z,97.60
2017-08-30T18:14:00.085Z,97.70
2017-08-30T18:16:28.650Z,97.60
2017-08-30T18:18:56.183Z,97.80
2017-08-30T18:21:23.744Z,98.20
2017-08-30T18:23:51.304Z,98.10
2017-08-30T18:26:18.877Z,97.80
2017-08-30T18:28:46.406Z,98.00
2017-08-30T18:31:13.969Z,98.10
2017-08-30T18:33:41.508Z,98.10
2017-08-30T18:36:09.068Z,97.70
2017-08-30T18:38:36.608Z,97.50
2017-08-30T18:41:04.201Z,97.90
2017-08-30T18:43:31.794Z,98.10
2017-08-30T18:45:59.438Z,98.00
2017-08-30T18:48:27.752Z,97.50
2017-08-30T18:50:55.413Z,97.20
2017-08-30T18:53:22.932Z,97.30
2017-08-30T18:55:50.461Z,97.60
2017-08-30T18:58:18.012Z,97.60
2017-08-30T19:00:45.574Z,97.50
2017-08-30T19:03:13.140Z,97.50
2017-08-30T19:05:40.670Z,97.40
2017-08-30T19:08:08.219Z,97.50
2017-08-30T19:10:35.758Z,97.50
2017-08-30T19:13:03.345Z,97.70
2017-08-30T19:15:30.878Z,97.50
2017-08-30T19:17:59.042Z,97.20
2017-08-30T19:20:26.600Z,97.20
2017-08-30T19:22:54.184Z,97.20
2017-08-30T19:25:21.729Z,97.20
2017-08-30T19:27:49.366Z,97.30
2017-08-30T19:30:16.945Z,97.30
2017-08-30T19:32:44.488Z,97.40
2017-08-30T19:35:12.058Z,97.60
2017-08-30T19:37:39.614Z,97.80
2017-08-30T19:40:07.198Z,97.80
2017-08-30T19:42:34.732Z,97.60
2017-08-30T19:45:02.392Z,97.50
2017-08-30T19:47:29.990Z,97.00
2017-08-30T19:49:58.156Z,96.40
2017-08-30T19:52:25.697Z,95.90
2017-08-30T19:54:53.341Z,96.10
2017-08-30T19:57:20.899Z,96.50
2017-08-30T19:59:48.484Z,96.10
2017-08-30T20:02:16.029Z,95.70
2017-08-30T20:04:43.592Z,95.70
2017-08-30T20:07:11.137Z,95.70
2017-08-30T20:09:38.673Z,95.60
2017-08-30T20:12:06.281Z,95.50
2017-08-30T20:14:33.816Z,96.00
2017-08-30T20:17:01.374Z,94.10
2017-08-30T20:19:30.268Z,94.00
2017-08-30T20:21:58.638Z,91.90
2017-08-30T20:24:26.180Z,91.20
2017-08-30T20:26:53.765Z,91.00
2017-08-30T20:29:21.352Z,91.90
2017-08-30T20:31:48.890Z,91.60
2017-08-30T20:34:16.435Z,92.30
2017-08-30T20:36:43.963Z,94.00
2017-08-30T20:39:11.508Z,93.60
2017-08-30T20:41:39.057Z,93.70
2017-08-30T20:44:06.605Z,92.50
2017-08-30T20:46:34.131Z,93.50
2017-08-30T20:49:01.703Z,91.60
2017-08-30T20:51:29.250Z,92.00
2017-08-30T20:53:56.818Z,93.30
2017-08-30T20:56:24.352Z,93.70
2017-08-30T20:58:51.898Z,93.50
2017-08-30T21:01:19.447Z,93.90
2017-08-30T21:03:46.968Z,92.80
2017-08-30T21:06:14.530Z,93.60
2017-08-30T21:08:42.069Z,93.50
2017-08-30T21:11:09.623Z,94.00
2017-08-30T21:13:37.244Z,92.80
2017-08-30T21:16:04.816Z,93.40
2017-08-30T21:18:32.343Z,93.00
2017-08-30T21:20:59.901Z,93.80
2017-08-30T21:23:28.428Z,92.80
2017-08-30T21:25:55.976Z,93.10
2017-08-30T21:28:23.520Z,92.70
2017-08-30T21:30:51.054Z,94.00
2017-08-30T21:33:18.623Z,94.30
2017-08-30T21:35:46.164Z,94.20
2017-08-30T21:38:13.713Z,94.00
2017-08-30T21:40:41.249Z,95.00
2017-08-30T21:43:08.814Z,94.50
2017-08-30T21:45:36.332Z,94.90
2017-08-30T21:48:03.889Z,94.30
2017-08-30T21:50:31.415Z,94.90
2017-08-30T21:53:00.330Z,95.40
2017-08-30T21:55:29.168Z,95.20
2017-08-30T21:57:56.726Z,95.30
2017-08-30T22:00:24.307Z,95.20
2017-08-30T22:02:51.842Z,95.70
2017-08-30T22:05:19.412Z,95.40
2017-08-30T22:07:46.957Z,95.90
2017-08-30T22:10:14.530Z,95.80
2017-08-30T22:12:42.069Z,95.70
2017-08-30T22:15:09.606Z,95.20
2017-08-30T22:17:37.134Z,94.90
2017-08-30T22:20:04.675Z,95.30
2017-08-30T22:22:32.226Z,94.80
2017-08-30T22:25:00.281Z,95.00
2017-08-30T22:27:28.988Z,95.20
2017-08-30T22:29:56.533Z,95.00
2017-08-30T22:32:24.078Z,95.50
2017-08-30T22:34:51.603Z,95.40
2017-08-30T22:37:19.148Z,95.80
2017-08-30T22:39:46.689Z,96.00
2017-08-30T22:42:14.250Z,96.10
2017-08-30T22:44:41.772Z,96.50
2017-08-30T22:47:09.313Z,96.70
2017-08-30T22:49:36.852Z,96.70
2017-08-30T22:52:04.399Z,96.40
2017-08-30T22:54:31.929Z,96.30
2017-08-30T22:56:59.781Z,95.90
2017-08-30T22:59:27.766Z,96.40
2017-08-30T23:01:55.313Z,96.10
2017-08-30T23:04:22.858Z,96.40
2017-08-30T23:06:50.398Z,96.40
2017-08-30T23:09:17.940Z,96.60
2017-08-30T23:11:45.507Z,95.80
2017-08-30T23:14:13.057Z,96.20
2017-08-30T23:16:40.572Z,96.40
2017-08-30T23:19:08.120Z,95.80
2017-08-30T23:21:35.694Z,96.40
2017-08-30T23:24:03.260Z,96.40
2017-08-30T23:26:30.793Z,96.60
2017-08-30T23:28:58.355Z,96.60
2017-08-30T23:31:25.889Z,96.80
2017-08-30T23:33:53.469Z,96.70
2017-08-30T23:36:21.016Z,96.20
2017-08-30T23:38:48.532Z,96.40
2017-08-30T23:41:16.076Z,96.40
2017-08-30T23:43:43.602Z,96.60
2017-08-30T23:46:11.159Z,97.00
2017-08-30T23:48:38.717Z,97.50
2017-08-30T23:51:06.277Z,97.30
2017-08-30T23:53:33.802Z,97.80
2017-08-30T23:56:01.404Z,97.90
2017-08-30T23:58:30.119Z,97.80
